sensor_id;sensor_type;location;lat;lon;timestamp;temperature;humidity
62581;DHT22;48640;48.770;9.148;2022-11-18T00:01:46;9.40;99.90
62581;DHT22;48640;48.770;9.148;2022-11-18T00:04:13;9.40;99.90
62581;DHT22;48640;48.770;9.148;2022-11-18T00:06:40;9.40;99.90
62581;DHT22;48640;48.770;9.148;2022-11-18T00:09:07;9.40;99.90
62581;DHT22;48640;48.770;9.148;2022-11-18T00:11:34;9.50;99.90
62581;DHT22;48640;48.770;9.148;2022-11-18T00:14:22;9.40;99.90
62581;DHT22;48640;48.770;9.148;2022-11-18T00:16:52;9.50;99.90
62581;DHT22;48640;48.770;9.148;2022-11-18T00:19:21;9.60;99.90
62581;DHT22;48640;48.770;9.148;2022-11-18T00:21:48;9.60;99.90
62581;DHT22;48640;48.770;9.148;2022-11-18T00:24:15;9.50;99.90
62581;DHT22;48640;48.770;9.148;2022-11-18T00:26:41;9.50;99.90
62581;DHT22;48640;48.770;9.148;2022-11-18T00:29:09;9.50;99.90
62581;DHT22;48640;48.770;9.148;2022-11-18T00:31:37;9.50;99.90
62581;DHT22;48640;48.770;9.148;2022-11-18T00:34:05;9.60;99.90
62581;DHT22;48640;48.770;9.148;2022-11-18T00:36:32;9.50;99.90
62581;DHT22;48640;48.770;9.148;2022-11-18T00:38:59;9.60;99.90
62581;DHT22;48640;48.770;9.148;2022-11-18T00:41:26;9.50;99.90
62581;DHT22;48640;48.770;9.148;2022-11-18T00:44:13;9.60;99.90
62581;DHT22;48640;48.770;9.148;2022-11-18T00:46:40;9.40;99.90
62581;DHT22;48640;48.770;9.148;2022-11-18T00:49:07;9.40;99.90
62581;DHT22;48640;48.770;9.148;2022-11-18T00:51:34;9.30;99.90
62581;DHT22;48640;48.770;9.148;2022-11-18T00:54:02;9.30;99.90
62581;DHT22;48640;48.770;9.148;2022-11-18T00:56:28;9.30;99.90
62581;DHT22;48640;48.770;9.148;2022-11-18T00:58:55;9.40;99.90
62581;DHT22;48640;48.770;9.148;2022-11-18T01:01:22;9.30;99.90
62581;DHT22;48640;48.770;9.148;2022-11-18T01:03:50;9.30;99.90
62581;DHT22;48640;48.770;9.148;2022-11-18T01:06:18;9.30;99.90
62581;DHT22;48640;48.770;9.148;2022-11-18T01:08:45;9.30;99.90
62581;DHT22;48640;48.770;9.148;2022-11-18T01:11:12;9.30;99.90
62581;DHT22;48640;48.770;9.148;2022-11-18T01:13:56;9.30;99.90
62581;DHT22;48640;48.770;9.148;2022-11-18T01:16:25;9.30;99.90
62581;DHT22;48640;48.770;9.148;2022-11-18T01:18:53;9.30;99.90
62581;DHT22;48640;48.770;9.148;2022-11-18T01:21:20;9.40;99.90
62581;DHT22;48640;48.770;9.148;2022-11-18T01:23:47;9.30;99.90
62581;DHT22;48640;48.770;9.148;2022-11-18T01:26:15;9.30;99.90
62581;DHT22;48640;48.770;9.148;2022-11-18T01:28:42;9.40;99.90
62581;DHT22;48640;48.770;9.148;2022-11-18T01:31:11;9.40;99.90
62581;DHT22;48640;48.770;9.148;2022-11-18T01:33:39;9.40;99.90
62581;DHT22;48640;48.770;9.148;2022-11-18T01:36:15;9.40;99.90
62581;DHT22;48640;48.770;9.148;2022-11-18T01:38:42;9.40;99.90
62581;DHT22;48640;48.770;9.148;2022-11-18T01:41:09;9.50;99.90
62581;DHT22;48640;48.770;9.148;2022-11-18T01:43:51;9.50;99.90
62581;DHT22;48640;48.770;9.148;2022-11-18T01:46:18;9.40;99.90
62581;DHT22;48640;48.770;9.148;2022-11-18T01:48:49;9.40;99.90
62581;DHT22;48640;48.770;9.148;2022-11-18T01:51:20;9.50;99.90
62581;DHT22;48640;48.770;9.148;2022-11-18T01:53:52;9.40;99.90
62581;DHT22;48640;48.770;9.148;2022-11-18T01:56:27;9.40;99.90
62581;DHT22;48640;48.770;9.148;2022-11-18T01:58:59;9.40;99.90
62581;DHT22;48640;48.770;9.148;2022-11-18T02:01:27;9.60;99.90
62581;DHT22;48640;48.770;9.148;2022-11-18T02:03:54;9.40;99.90
62581;DHT22;48640;48.770;9.148;2022-11-18T02:06:23;9.40;99.90
62581;DHT22;48640;48.770;9.148;2022-11-18T02:08:50;9.40;99.90
62581;DHT22;48640;48.770;9.148;2022-11-18T02:11:17;9.40;99.90
62581;DHT22;48640;48.770;9.148;2022-11-18T02:14:03;9.40;99.90
62581;DHT22;48640;48.770;9.148;2022-11-18T02:16:41;9.40;99.90
62581;DHT22;48640;48.770;9.148;2022-11-18T02:19:19;9.40;99.90
62581;DHT22;48640;48.770;9.148;2022-11-18T02:22:01;9.50;99.90
62581;DHT22;48640;48.770;9.148;2022-11-18T02:24:40;9.40;99.90
62581;DHT22;48640;48.770;9.148;2022-11-18T02:27:29;9.30;99.90
62581;DHT22;48640;48.770;9.148;2022-11-18T02:30:06;9.40;99.90
62581;DHT22;48640;48.770;9.148;2022-11-18T02:32:40;9.50;99.90
62581;DHT22;48640;48.770;9.148;2022-11-18T02:35:12;9.50;99.90
62581;DHT22;48640;48.770;9.148;2022-11-18T02:37:44;9.50;99.90
62581;DHT22;48640;48.770;9.148;2022-11-18T02:40:15;9.50;99.90
62581;DHT22;48640;48.770;9.148;2022-11-18T02:42:47;9.40;99.90
62581;DHT22;48640;48.770;9.148;2022-11-18T02:45:18;9.50;99.90
62581;DHT22;48640;48.770;9.148;2022-11-18T02:47:46;9.40;99.90
62581;DHT22;48640;48.770;9.148;2022-11-18T02:50:18;9.40;99.90
62581;DHT22;48640;48.770;9.148;2022-11-18T02:52:49;9.40;99.90
62581;DHT22;48640;48.770;9.148;2022-11-18T02:55:17;9.40;99.90
62581;DHT22;48640;48.770;9.148;2022-11-18T02:57:45;9.40;99.90
62581;DHT22;48640;48.770;9.148;2022-11-18T03:00:14;9.30;99.90
62581;DHT22;48640;48.770;9.148;2022-11-18T03:02:44;9.40;99.90
62581;DHT22;48640;48.770;9.148;2022-11-18T03:05:15;9.40;99.90
62581;DHT22;48640;48.770;9.148;2022-11-18T03:07:46;9.40;99.90
62581;DHT22;48640;48.770;9.148;2022-11-18T03:10:14;9.40;99.90
62581;DHT22;48640;48.770;9.148;2022-11-18T03:12:44;9.40;99.90
62581;DHT22;48640;48.770;9.148;2022-11-18T03:15:19;9.40;99.90
62581;DHT22;48640;48.770;9.148;2022-11-18T03:17:57;9.50;99.90
62581;DHT22;48640;48.770;9.148;2022-11-18T03:20:26;9.50;99.90
62581;DHT22;48640;48.770;9.148;2022-11-18T03:22:54;9.50;99.90
62581;DHT22;48640;48.770;9.148;2022-11-18T03:25:28;9.50;99.90
62581;DHT22;48640;48.770;9.148;2022-11-18T03:28:01;9.50;99.90
62581;DHT22;48640;48.770;9.148;2022-11-18T03:30:32;9.50;99.90
62581;DHT22;48640;48.770;9.148;2022-11-18T03:33:02;9.50;99.90
62581;DHT22;48640;48.770;9.148;2022-11-18T03:35:34;9.50;99.90
62581;DHT22;48640;48.770;9.148;2022-11-18T03:38:07;9.60;99.90
62581;DHT22;48640;48.770;9.148;2022-11-18T03:40:38;9.50;99.90
62581;DHT22;48640;48.770;9.148;2022-11-18T03:43:10;9.50;99.90
62581;DHT22;48640;48.770;9.148;2022-11-18T03:45:43;9.60;99.90
62581;DHT22;48640;48.770;9.148;2022-11-18T03:48:15;9.60;99.90
62581;DHT22;48640;48.770;9.148;2022-11-18T03:50:46;9.50;99.90
62581;DHT22;48640;48.770;9.148;2022-11-18T03:53:16;9.50;99.90
62581;DHT22;48640;48.770;9.148;2022-11-18T03:55:46;9.50;99.90
62581;DHT22;48640;48.770;9.148;2022-11-18T03:58:18;9.60;99.90
62581;DHT22;48640;48.770;9.148;2022-11-18T04:00:49;9.50;99.90
62581;DHT22;48640;48.770;9.148;2022-11-18T04:03:18;9.20;99.90
62581;DHT22;48640;48.770;9.148;2022-11-18T04:05:45;9.10;99.90
62581;DHT22;48640;48.770;9.148;2022-11-18T04:08:15;9.10;99.90
62581;DHT22;48640;48.770;9.148;2022-11-18T04:10:48;9.30;99.90
62581;DHT22;48640;48.770;9.148;2022-11-18T04:13:19;9.30;99.90
62581;DHT22;48640;48.770;9.148;2022-11-18T04:15:47;9.30;99.90
62581;DHT22;48640;48.770;9.148;2022-11-18T04:18:14;9.30;99.90
62581;DHT22;48640;48.770;9.148;2022-11-18T04:20:42;9.40;99.90
62581;DHT22;48640;48.770;9.148;2022-11-18T04:23:09;9.40;99.90
62581;DHT22;48640;48.770;9.148;2022-11-18T04:25:36;9.30;99.90
62581;DHT22;48640;48.770;9.148;2022-11-18T04:28:04;9.50;99.90
62581;DHT22;48640;48.770;9.148;2022-11-18T04:30:31;9.30;99.90
62581;DHT22;48640;48.770;9.148;2022-11-18T04:32:58;9.30;99.90
62581;DHT22;48640;48.770;9.148;2022-11-18T04:35:25;9.30;99.90
62581;DHT22;48640;48.770;9.148;2022-11-18T04:37:53;9.30;99.90
62581;DHT22;48640;48.770;9.148;2022-11-18T04:40:20;9.30;99.90
62581;DHT22;48640;48.770;9.148;2022-11-18T04:42:47;9.40;99.90
62581;DHT22;48640;48.770;9.148;2022-11-18T04:45:14;9.30;99.90
62581;DHT22;48640;48.770;9.148;2022-11-18T04:47:41;9.20;99.90
62581;DHT22;48640;48.770;9.148;2022-11-18T04:50:08;9.20;99.90
62581;DHT22;48640;48.770;9.148;2022-11-18T04:52:35;9.20;99.90
62581;DHT22;48640;48.770;9.148;2022-11-18T04:55:04;9.20;99.90
62581;DHT22;48640;48.770;9.148;2022-11-18T04:57:31;9.20;99.90
62581;DHT22;48640;48.770;9.148;2022-11-18T04:59:58;9.20;99.90
62581;DHT22;48640;48.770;9.148;2022-11-18T05:02:25;9.20;99.90
62581;DHT22;48640;48.770;9.148;2022-11-18T05:04:51;9.20;99.90
62581;DHT22;48640;48.770;9.148;2022-11-18T05:07:18;9.20;99.90
62581;DHT22;48640;48.770;9.148;2022-11-18T05:09:45;9.20;99.90
62581;DHT22;48640;48.770;9.148;2022-11-18T05:12:14;9.10;99.90
62581;DHT22;48640;48.770;9.148;2022-11-18T05:14:58;9.10;99.90
62581;DHT22;48640;48.770;9.148;2022-11-18T05:17:25;9.10;99.90
62581;DHT22;48640;48.770;9.148;2022-11-18T05:19:52;9.10;99.90
62581;DHT22;48640;48.770;9.148;2022-11-18T05:22:19;9.00;99.90
62581;DHT22;48640;48.770;9.148;2022-11-18T05:24:45;9.00;99.90
62581;DHT22;48640;48.770;9.148;2022-11-18T05:27:14;9.00;99.90
62581;DHT22;48640;48.770;9.148;2022-11-18T05:29:41;8.90;99.90
62581;DHT22;48640;48.770;9.148;2022-11-18T05:32:08;8.90;99.90
62581;DHT22;48640;48.770;9.148;2022-11-18T05:34:35;8.90;99.90
62581;DHT22;48640;48.770;9.148;2022-11-18T05:37:02;8.90;99.90
62581;DHT22;48640;48.770;9.148;2022-11-18T05:39:30;8.90;99.90
62581;DHT22;48640;48.770;9.148;2022-11-18T05:41:58;9.00;99.90
62581;DHT22;48640;48.770;9.148;2022-11-18T05:44:44;8.90;99.90
62581;DHT22;48640;48.770;9.148;2022-11-18T05:47:11;8.90;99.90
62581;DHT22;48640;48.770;9.148;2022-11-18T05:49:37;8.80;99.90
62581;DHT22;48640;48.770;9.148;2022-11-18T05:52:04;8.80;99.90
62581;DHT22;48640;48.770;9.148;2022-11-18T05:54:31;8.80;99.90
62581;DHT22;48640;48.770;9.148;2022-11-18T05:56:58;8.80;99.90
62581;DHT22;48640;48.770;9.148;2022-11-18T05:59:25;8.70;99.90
62581;DHT22;48640;48.770;9.148;2022-11-18T06:01:55;8.80;99.90
62581;DHT22;48640;48.770;9.148;2022-11-18T06:04:26;8.80;99.90
62581;DHT22;48640;48.770;9.148;2022-11-18T06:06:58;8.70;99.90
62581;DHT22;48640;48.770;9.148;2022-11-18T06:09:31;8.60;99.90
62581;DHT22;48640;48.770;9.148;2022-11-18T06:12:02;8.60;99.90
62581;DHT22;48640;48.770;9.148;2022-11-18T06:14:31;8.60;99.90
62581;DHT22;48640;48.770;9.148;2022-11-18T06:17:02;8.60;99.90
62581;DHT22;48640;48.770;9.148;2022-11-18T06:19:32;8.60;99.90
62581;DHT22;48640;48.770;9.148;2022-11-18T06:21:59;8.70;99.90
62581;DHT22;48640;48.770;9.148;2022-11-18T06:24:26;8.70;99.90
62581;DHT22;48640;48.770;9.148;2022-11-18T06:26:54;8.70;99.90
62581;DHT22;48640;48.770;9.148;2022-11-18T06:29:21;8.80;99.90
62581;DHT22;48640;48.770;9.148;2022-11-18T06:31:48;8.80;99.90
62581;DHT22;48640;48.770;9.148;2022-11-18T06:34:16;9.00;99.90
62581;DHT22;48640;48.770;9.148;2022-11-18T06:36:43;8.90;99.90
62581;DHT22;48640;48.770;9.148;2022-11-18T06:39:09;8.90;99.90
62581;DHT22;48640;48.770;9.148;2022-11-18T06:41:36;8.90;99.90
62581;DHT22;48640;48.770;9.148;2022-11-18T06:44:03;8.80;99.90
62581;DHT22;48640;48.770;9.148;2022-11-18T06:46:29;8.70;99.90
62581;DHT22;48640;48.770;9.148;2022-11-18T06:49:13;8.70;99.90
62581;DHT22;48640;48.770;9.148;2022-11-18T06:51:41;8.80;99.90
62581;DHT22;48640;48.770;9.148;2022-11-18T06:54:08;8.70;99.90
62581;DHT22;48640;48.770;9.148;2022-11-18T06:56:35;8.90;99.90
62581;DHT22;48640;48.770;9.148;2022-11-18T06:59:02;8.80;99.90
62581;DHT22;48640;48.770;9.148;2022-11-18T07:01:30;8.90;99.90
62581;DHT22;48640;48.770;9.148;2022-11-18T07:03:58;8.90;99.90
62581;DHT22;48640;48.770;9.148;2022-11-18T07:06:27;8.90;99.90
62581;DHT22;48640;48.770;9.148;2022-11-18T07:08:55;8.90;99.90
62581;DHT22;48640;48.770;9.148;2022-11-18T07:11:23;9.00;99.90
62581;DHT22;48640;48.770;9.148;2022-11-18T07:13:50;9.00;99.90
62581;DHT22;48640;48.770;9.148;2022-11-18T07:16:19;9.00;99.90
62581;DHT22;48640;48.770;9.148;2022-11-18T07:18:47;9.00;99.90
62581;DHT22;48640;48.770;9.148;2022-11-18T07:21:16;9.00;99.90
62581;DHT22;48640;48.770;9.148;2022-11-18T07:23:43;9.00;99.90
62581;DHT22;48640;48.770;9.148;2022-11-18T07:26:12;9.00;99.90
62581;DHT22;48640;48.770;9.148;2022-11-18T07:28:39;9.00;99.90
62581;DHT22;48640;48.770;9.148;2022-11-18T07:31:07;9.00;99.90
62581;DHT22;48640;48.770;9.148;2022-11-18T07:33:35;9.10;99.90
62581;DHT22;48640;48.770;9.148;2022-11-18T07:36:03;9.10;99.90
62581;DHT22;48640;48.770;9.148;2022-11-18T07:38:31;9.10;99.90
62581;DHT22;48640;48.770;9.148;2022-11-18T07:41:03;9.20;99.90
62581;DHT22;48640;48.770;9.148;2022-11-18T07:43:32;9.00;99.90
62581;DHT22;48640;48.770;9.148;2022-11-18T07:46:08;9.00;99.90
62581;DHT22;48640;48.770;9.148;2022-11-18T07:48:35;9.00;99.90
62581;DHT22;48640;48.770;9.148;2022-11-18T07:51:01;9.10;99.90
62581;DHT22;48640;48.770;9.148;2022-11-18T07:53:29;9.30;99.90
62581;DHT22;48640;48.770;9.148;2022-11-18T07:55:56;9.10;99.90
62581;DHT22;48640;48.770;9.148;2022-11-18T07:58:22;9.20;99.90
62581;DHT22;48640;48.770;9.148;2022-11-18T08:00:51;9.20;99.90
62581;DHT22;48640;48.770;9.148;2022-11-18T08:03:18;9.30;99.90
62581;DHT22;48640;48.770;9.148;2022-11-18T08:05:45;9.20;99.90
62581;DHT22;48640;48.770;9.148;2022-11-18T08:08:11;9.20;99.90
62581;DHT22;48640;48.770;9.148;2022-11-18T08:10:38;9.50;99.90
62581;DHT22;48640;48.770;9.148;2022-11-18T08:13:05;9.30;99.90
62581;DHT22;48640;48.770;9.148;2022-11-18T08:15:32;9.40;99.90
62581;DHT22;48640;48.770;9.148;2022-11-18T08:18:00;9.50;99.90
62581;DHT22;48640;48.770;9.148;2022-11-18T08:20:27;9.40;99.90
62581;DHT22;48640;48.770;9.148;2022-11-18T08:22:57;9.40;99.90
62581;DHT22;48640;48.770;9.148;2022-11-18T08:25:24;9.50;99.90
62581;DHT22;48640;48.770;9.148;2022-11-18T08:27:51;9.50;99.90
62581;DHT22;48640;48.770;9.148;2022-11-18T08:30:18;9.50;99.90
62581;DHT22;48640;48.770;9.148;2022-11-18T08:32:45;9.50;99.90
62581;DHT22;48640;48.770;9.148;2022-11-18T08:35:13;9.50;99.90
62581;DHT22;48640;48.770;9.148;2022-11-18T08:37:40;9.60;99.90
62581;DHT22;48640;48.770;9.148;2022-11-18T08:40:08;9.70;99.90
62581;DHT22;48640;48.770;9.148;2022-11-18T08:42:35;9.70;99.90
62581;DHT22;48640;48.770;9.148;2022-11-18T08:45:03;9.50;99.90
62581;DHT22;48640;48.770;9.148;2022-11-18T08:47:32;9.50;99.90
62581;DHT22;48640;48.770;9.148;2022-11-18T08:49:59;9.80;99.90
62581;DHT22;48640;48.770;9.148;2022-11-18T08:52:28;9.60;99.90
62581;DHT22;48640;48.770;9.148;2022-11-18T08:54:55;9.80;99.90
62581;DHT22;48640;48.770;9.148;2022-11-18T08:57:21;9.70;99.90
62581;DHT22;48640;48.770;9.148;2022-11-18T08:59:48;9.70;99.90
62581;DHT22;48640;48.770;9.148;2022-11-18T09:02:17;9.80;99.90
62581;DHT22;48640;48.770;9.148;2022-11-18T09:04:45;9.80;99.90
62581;DHT22;48640;48.770;9.148;2022-11-18T09:07:12;9.80;99.90
62581;DHT22;48640;48.770;9.148;2022-11-18T09:09:41;10.00;99.90
62581;DHT22;48640;48.770;9.148;2022-11-18T09:12:08;9.90;99.90
62581;DHT22;48640;48.770;9.148;2022-11-18T09:14:40;9.90;99.90
62581;DHT22;48640;48.770;9.148;2022-11-18T09:17:07;10.00;99.90
62581;DHT22;48640;48.770;9.148;2022-11-18T09:19:34;10.00;99.90
62581;DHT22;48640;48.770;9.148;2022-11-18T09:22:01;10.00;99.90
62581;DHT22;48640;48.770;9.148;2022-11-18T09:24:28;10.00;99.90
62581;DHT22;48640;48.770;9.148;2022-11-18T09:26:56;10.00;99.90
62581;DHT22;48640;48.770;9.148;2022-11-18T09:29:24;10.00;99.90
62581;DHT22;48640;48.770;9.148;2022-11-18T09:31:51;9.90;99.90
62581;DHT22;48640;48.770;9.148;2022-11-18T09:34:18;9.80;99.90
62581;DHT22;48640;48.770;9.148;2022-11-18T09:36:45;9.70;99.90
62581;DHT22;48640;48.770;9.148;2022-11-18T09:39:12;9.70;99.90
62581;DHT22;48640;48.770;9.148;2022-11-18T09:41:43;9.80;99.90
62581;DHT22;48640;48.770;9.148;2022-11-18T09:44:26;9.80;99.90
62581;DHT22;48640;48.770;9.148;2022-11-18T09:47:03;9.90;99.90
62581;DHT22;48640;48.770;9.148;2022-11-18T09:49:35;10.00;99.90
62581;DHT22;48640;48.770;9.148;2022-11-18T09:52:04;10.10;99.90
62581;DHT22;48640;48.770;9.148;2022-11-18T09:54:34;10.10;99.90
62581;DHT22;48640;48.770;9.148;2022-11-18T09:57:03;10.20;99.90
62581;DHT22;48640;48.770;9.148;2022-11-18T09:59:37;10.30;99.90
62581;DHT22;48640;48.770;9.148;2022-11-18T10:02:27;10.50;99.90
62581;DHT22;48640;48.770;9.148;2022-11-18T10:04:54;10.50;99.90
62581;DHT22;48640;48.770;9.148;2022-11-18T10:07:33;10.60;99.90
62581;DHT22;48640;48.770;9.148;2022-11-18T10:10:09;10.70;99.90
62581;DHT22;48640;48.770;9.148;2022-11-18T10:12:42;10.80;99.90
62581;DHT22;48640;48.770;9.148;2022-11-18T10:15:20;10.90;99.90
62581;DHT22;48640;48.770;9.148;2022-11-18T10:17:53;10.80;99.90
62581;DHT22;48640;48.770;9.148;2022-11-18T10:20:32;10.70;99.90
62581;DHT22;48640;48.770;9.148;2022-11-18T10:23:11;10.50;99.90
62581;DHT22;48640;48.770;9.148;2022-11-18T10:25:40;10.50;99.90
62581;DHT22;48640;48.770;9.148;2022-11-18T10:28:19;10.50;99.90
62581;DHT22;48640;48.770;9.148;2022-11-18T10:30:48;10.70;99.90
62581;DHT22;48640;48.770;9.148;2022-11-18T10:33:26;10.70;99.90
62581;DHT22;48640;48.770;9.148;2022-11-18T10:36:17;10.80;99.90
62581;DHT22;48640;48.770;9.148;2022-11-18T10:38:45;10.90;99.90
62581;DHT22;48640;48.770;9.148;2022-11-18T10:41:14;11.10;99.90
62581;DHT22;48640;48.770;9.148;2022-11-18T10:43:44;11.20;99.90
62581;DHT22;48640;48.770;9.148;2022-11-18T10:46:21;11.30;99.90
62581;DHT22;48640;48.770;9.148;2022-11-18T10:49:10;11.70;99.90
62581;DHT22;48640;48.770;9.148;2022-11-18T10:51:40;11.60;99.90
62581;DHT22;48640;48.770;9.148;2022-11-18T10:54:10;11.60;99.90
62581;DHT22;48640;48.770;9.148;2022-11-18T10:56:44;11.50;99.90
62581;DHT22;48640;48.770;9.148;2022-11-18T10:59:17;11.50;99.90
62581;DHT22;48640;48.770;9.148;2022-11-18T11:01:58;11.40;99.90
62581;DHT22;48640;48.770;9.148;2022-11-18T11:04:27;11.20;99.90
62581;DHT22;48640;48.770;9.148;2022-11-18T11:06:55;11.20;99.90
62581;DHT22;48640;48.770;9.148;2022-11-18T11:09:26;11.10;99.90
62581;DHT22;48640;48.770;9.148;2022-11-18T11:11:58;11.10;99.90
62581;DHT22;48640;48.770;9.148;2022-11-18T11:14:33;11.20;99.90
62581;DHT22;48640;48.770;9.148;2022-11-18T11:17:08;11.30;99.90
62581;DHT22;48640;48.770;9.148;2022-11-18T11:19:49;11.30;99.90
62581;DHT22;48640;48.770;9.148;2022-11-18T11:22:17;11.30;99.90
62581;DHT22;48640;48.770;9.148;2022-11-18T11:24:44;11.20;99.90
62581;DHT22;48640;48.770;9.148;2022-11-18T11:27:28;11.20;99.90
62581;DHT22;48640;48.770;9.148;2022-11-18T11:30:15;11.30;99.90
62581;DHT22;48640;48.770;9.148;2022-11-18T11:33:13;11.00;99.90
62581;DHT22;48640;48.770;9.148;2022-11-18T11:35:54;11.10;99.90
62581;DHT22;48640;48.770;9.148;2022-11-18T11:38:34;11.30;99.90
62581;DHT22;48640;48.770;9.148;2022-11-18T11:41:08;11.70;99.90
62581;DHT22;48640;48.770;9.148;2022-11-18T11:43:46;11.80;99.90
62581;DHT22;48640;48.770;9.148;2022-11-18T11:46:26;11.90;99.90
62581;DHT22;48640;48.770;9.148;2022-11-18T11:49:05;11.90;99.90
62581;DHT22;48640;48.770;9.148;2022-11-18T11:51:44;11.60;99.30
62581;DHT22;48640;48.770;9.148;2022-11-18T11:54:32;11.60;99.90
62581;DHT22;48640;48.770;9.148;2022-11-18T11:57:04;11.50;99.90
62581;DHT22;48640;48.770;9.148;2022-11-18T11:59:42;11.60;99.60
62581;DHT22;48640;48.770;9.148;2022-11-18T12:02:47;11.50;99.70
62581;DHT22;48640;48.770;9.148;2022-11-18T12:05:21;11.30;99.90
62581;DHT22;48640;48.770;9.148;2022-11-18T12:07:54;11.30;99.90
62581;DHT22;48640;48.770;9.148;2022-11-18T12:10:34;11.40;99.90
62581;DHT22;48640;48.770;9.148;2022-11-18T12:13:05;11.30;99.90
62581;DHT22;48640;48.770;9.148;2022-11-18T12:15:46;11.10;99.90
62581;DHT22;48640;48.770;9.148;2022-11-18T12:18:28;10.90;99.90
62581;DHT22;48640;48.770;9.148;2022-11-18T12:20:57;10.80;99.90
62581;DHT22;48640;48.770;9.148;2022-11-18T12:23:25;10.80;99.90
62581;DHT22;48640;48.770;9.148;2022-11-18T12:26:02;10.80;99.90
62581;DHT22;48640;48.770;9.148;2022-11-18T12:28:32;10.60;99.90
62581;DHT22;48640;48.770;9.148;2022-11-18T12:34:28;10.40;99.90
62581;DHT22;48640;48.770;9.148;2022-11-18T12:40:03;10.30;99.90
62581;DHT22;48640;48.770;9.148;2022-11-18T12:42:39;10.30;99.90
62581;DHT22;48640;48.770;9.148;2022-11-18T12:45:54;10.30;99.90
62581;DHT22;48640;48.770;9.148;2022-11-18T12:48:37;10.40;99.90
62581;DHT22;48640;48.770;9.148;2022-11-18T12:57:20;10.40;99.90
62581;DHT22;48640;48.770;9.148;2022-11-18T12:59:47;10.60;99.90
62581;DHT22;48640;48.770;9.148;2022-11-18T13:02:22;10.40;99.90
62581;DHT22;48640;48.770;9.148;2022-11-18T13:05:04;10.70;99.90
62581;DHT22;48640;48.770;9.148;2022-11-18T13:07:32;11.00;99.90
62581;DHT22;48640;48.770;9.148;2022-11-18T13:10:21;11.20;99.90
62581;DHT22;48640;48.770;9.148;2022-11-18T13:12:50;11.20;99.90
62581;DHT22;48640;48.770;9.148;2022-11-18T13:15:18;11.30;99.90
62581;DHT22;48640;48.770;9.148;2022-11-18T13:18:11;11.30;99.90
62581;DHT22;48640;48.770;9.148;2022-11-18T13:20:40;11.00;99.90
62581;DHT22;48640;48.770;9.148;2022-11-18T13:23:24;11.10;99.90
62581;DHT22;48640;48.770;9.148;2022-11-18T13:26:16;11.00;99.90
62581;DHT22;48640;48.770;9.148;2022-11-18T13:28:58;11.10;99.90
62581;DHT22;48640;48.770;9.148;2022-11-18T13:31:31;11.20;99.90
62581;DHT22;48640;48.770;9.148;2022-11-18T13:34:00;11.10;99.90
62581;DHT22;48640;48.770;9.148;2022-11-18T13:36:29;11.10;99.90
62581;DHT22;48640;48.770;9.148;2022-11-18T13:38:58;11.20;99.90
62581;DHT22;48640;48.770;9.148;2022-11-18T13:41:25;11.10;99.90
62581;DHT22;48640;48.770;9.148;2022-11-18T13:44:10;11.00;99.90
62581;DHT22;48640;48.770;9.148;2022-11-18T13:46:39;10.80;99.90
62581;DHT22;48640;48.770;9.148;2022-11-18T13:49:13;10.70;99.90
62581;DHT22;48640;48.770;9.148;2022-11-18T13:51:42;10.70;99.90
62581;DHT22;48640;48.770;9.148;2022-11-18T13:54:16;10.50;99.90
62581;DHT22;48640;48.770;9.148;2022-11-18T13:56:46;10.40;99.90
62581;DHT22;48640;48.770;9.148;2022-11-18T13:59:17;10.50;99.90
62581;DHT22;48640;48.770;9.148;2022-11-18T14:01:45;10.50;99.90
62581;DHT22;48640;48.770;9.148;2022-11-18T14:04:18;10.70;99.90
62581;DHT22;48640;48.770;9.148;2022-11-18T14:06:45;10.50;99.90
62581;DHT22;48640;48.770;9.148;2022-11-18T14:09:18;10.30;99.90
62581;DHT22;48640;48.770;9.148;2022-11-18T14:11:59;10.20;99.90
62581;DHT22;48640;48.770;9.148;2022-11-18T14:14:29;10.10;99.90
62581;DHT22;48640;48.770;9.148;2022-11-18T14:17:02;9.90;99.90
62581;DHT22;48640;48.770;9.148;2022-11-18T14:19:30;9.80;99.90
62581;DHT22;48640;48.770;9.148;2022-11-18T14:22:02;9.80;99.90
62581;DHT22;48640;48.770;9.148;2022-11-18T14:24:29;9.90;99.90
62581;DHT22;48640;48.770;9.148;2022-11-18T14:26:56;9.80;99.90
62581;DHT22;48640;48.770;9.148;2022-11-18T14:29:23;9.80;99.90
62581;DHT22;48640;48.770;9.148;2022-11-18T14:32:18;9.80;99.90
62581;DHT22;48640;48.770;9.148;2022-11-18T14:34:56;9.80;99.90
62581;DHT22;48640;48.770;9.148;2022-11-18T14:37:23;9.60;99.90
62581;DHT22;48640;48.770;9.148;2022-11-18T14:39:54;9.60;99.90
62581;DHT22;48640;48.770;9.148;2022-11-18T14:42:21;9.60;99.90
62581;DHT22;48640;48.770;9.148;2022-11-18T14:44:48;9.60;99.90
62581;DHT22;48640;48.770;9.148;2022-11-18T14:47:22;9.70;99.90
62581;DHT22;48640;48.770;9.148;2022-11-18T14:49:51;9.70;99.90
62581;DHT22;48640;48.770;9.148;2022-11-18T14:52:17;9.80;99.90
62581;DHT22;48640;48.770;9.148;2022-11-18T14:54:44;9.70;99.90
62581;DHT22;48640;48.770;9.148;2022-11-18T14:57:13;9.60;99.90
62581;DHT22;48640;48.770;9.148;2022-11-18T14:59:41;9.60;99.90
62581;DHT22;48640;48.770;9.148;2022-11-18T15:02:12;9.50;99.90
62581;DHT22;48640;48.770;9.148;2022-11-18T15:04:41;9.60;99.90
62581;DHT22;48640;48.770;9.148;2022-11-18T15:07:09;9.50;99.90
62581;DHT22;48640;48.770;9.148;2022-11-18T15:09:38;9.40;99.90
62581;DHT22;48640;48.770;9.148;2022-11-18T15:12:04;9.40;99.90
62581;DHT22;48640;48.770;9.148;2022-11-18T15:14:31;9.40;99.90
62581;DHT22;48640;48.770;9.148;2022-11-18T15:16:59;9.50;99.90
62581;DHT22;48640;48.770;9.148;2022-11-18T15:19:26;9.50;99.90
62581;DHT22;48640;48.770;9.148;2022-11-18T15:21:55;9.50;99.90
62581;DHT22;48640;48.770;9.148;2022-11-18T15:24:22;9.40;99.90
62581;DHT22;48640;48.770;9.148;2022-11-18T15:26:49;9.40;99.90
62581;DHT22;48640;48.770;9.148;2022-11-18T15:29:17;9.40;99.90
62581;DHT22;48640;48.770;9.148;2022-11-18T15:31:44;9.40;99.90
62581;DHT22;48640;48.770;9.148;2022-11-18T15:34:13;9.50;99.90
62581;DHT22;48640;48.770;9.148;2022-11-18T15:36:39;9.60;99.90
62581;DHT22;48640;48.770;9.148;2022-11-18T15:39:08;9.60;99.90
62581;DHT22;48640;48.770;9.148;2022-11-18T15:41:37;9.70;99.90
62581;DHT22;48640;48.770;9.148;2022-11-18T15:44:05;9.70;99.90
62581;DHT22;48640;48.770;9.148;2022-11-18T15:46:31;9.80;99.90
62581;DHT22;48640;48.770;9.148;2022-11-18T15:48:59;9.80;99.90
62581;DHT22;48640;48.770;9.148;2022-11-18T15:51:27;9.80;99.90
62581;DHT22;48640;48.770;9.148;2022-11-18T15:53:55;10.00;99.90
62581;DHT22;48640;48.770;9.148;2022-11-18T15:56:26;9.80;99.90
62581;DHT22;48640;48.770;9.148;2022-11-18T15:58:55;9.80;99.90
62581;DHT22;48640;48.770;9.148;2022-11-18T16:01:23;9.80;99.90
62581;DHT22;48640;48.770;9.148;2022-11-18T16:03:50;9.70;99.90
62581;DHT22;48640;48.770;9.148;2022-11-18T16:06:17;9.80;99.90
62581;DHT22;48640;48.770;9.148;2022-11-18T16:08:48;9.80;99.90
62581;DHT22;48640;48.770;9.148;2022-11-18T16:11:18;9.70;99.90
62581;DHT22;48640;48.770;9.148;2022-11-18T16:14:06;9.70;99.90
62581;DHT22;48640;48.770;9.148;2022-11-18T16:16:33;9.60;99.90
62581;DHT22;48640;48.770;9.148;2022-11-18T16:19:03;9.50;99.90